Time;durP1;ratioP1;P1;durP2;ratioP2;P2;SDS_P1;SDS_P2;PMS_P1;PMS_P2;Temp;Humidity;BMP_temperature;BMP_pressure;BME280_temperature;BME280_humidity;BME280_pressure;Samples;Min_cycle;Max_cycle;Signal;HPM_P1;HPM_P2
2021/09/19 00:00:18;;;;;;;3.55;3.25;;;;;;;14.53;58.17;101374.28;688540;28;46669;-70
2021/09/19 00:00:39;;;;;;;3.53;3.20;;;;;;;14.55;58.12;101378.50;688183;28;44380;-69
2021/09/19 00:01:00;;;;;;;3.58;3.28;;;;;;;14.54;57.91;101379.53;689664;28;21531;-74
2021/09/19 00:01:22;;;;;;;3.65;3.35;;;;;;;14.55;58.21;101375.78;688615;28;23543;-70
2021/09/19 00:01:43;;;;;;;3.55;3.25;;;;;;;14.55;58.06;101380.41;686606;28;45303;-69
2021/09/19 00:02:04;;;;;;;4.15;3.08;;;;;;;14.54;57.97;101384.13;688896;28;21444;-71
2021/09/19 00:02:25;;;;;;;3.50;2.88;;;;;;;14.53;58.18;101377.00;690905;28;21537;-69
2021/09/19 00:02:48;;;;;;;3.47;3.17;;;;;;;14.51;58.20;101377.19;687826;28;24971;-70
2021/09/19 00:03:09;;;;;;;3.80;3.40;;;;;;;14.53;58.10;101380.59;688669;28;46439;-69
2021/09/19 00:03:30;;;;;;;3.92;3.42;;;;;;;14.53;58.17;101377.88;690052;28;21423;-70
2021/09/19 00:03:51;;;;;;;3.90;3.50;;;;;;;14.51;57.90;101373.63;689781;28;22398;-70
2021/09/19 00:04:13;;;;;;;3.47;3.22;;;;;;;14.52;58.20;101381.59;688540;28;22492;-72
2021/09/19 00:04:34;;;;;;;4.30;3.40;;;;;;;14.51;58.20;101379.06;690346;28;44262;-71
2021/09/19 00:04:55;;;;;;;3.50;3.20;;;;;;;14.52;58.00;101383.50;690124;28;22258;-69
2021/09/19 00:05:17;;;;;;;3.30;3.10;;;;;;;14.52;58.33;101383.50;688987;28;46367;-73
2021/09/19 00:05:38;;;;;;;3.33;2.92;;;;;;;14.52;58.38;101380.78;687706;28;69304;-70
2021/09/19 00:05:59;;;;;;;3.95;3.15;;;;;;;14.52;58.16;101383.50;687687;28;23492;-70
2021/09/19 00:06:22;;;;;;;3.70;3.40;;;;;;;14.49;58.55;101373.81;689365;28;22505;-70
2021/09/19 00:06:44;;;;;;;4.78;3.33;;;;;;;14.52;58.42;101375.34;685942;28;67498;-69
2021/09/19 00:07:05;;;;;;;3.90;3.28;;;;;;;14.52;58.34;101378.88;686744;28;44393;-70
2021/09/19 00:07:26;;;;;;;3.70;3.40;;;;;;;14.50;58.33;101372.81;688913;28;22416;-70
2021/09/19 00:07:47;;;;;;;4.05;3.53;;;;;;;14.51;58.43;101371.75;687927;28;21345;-70
2021/09/19 00:08:11;;;;;;;3.67;3.28;;;;;;;14.51;58.30;101379.91;687928;28;21553;-69
2021/09/19 00:08:32;;;;;;;3.50;3.20;;;;;;;14.51;58.21;101373.63;686848;28;90733;-71
2021/09/19 00:08:54;;;;;;;3.50;3.15;;;;;;;14.48;58.21;101372.16;688515;28;22383;-69
2021/09/19 00:09:15;;;;;;;3.20;3.00;;;;;;;14.50;58.30;101371.94;687609;28;46295;-72
2021/09/19 00:09:37;;;;;;;3.22;2.92;;;;;;;14.50;58.05;101380.97;689310;28;23508;-70
2021/09/19 00:09:58;;;;;;;4.15;3.03;;;;;;;14.49;58.13;101373.00;688090;28;46320;-71
2021/09/19 00:10:20;;;;;;;3.72;3.15;;;;;;;14.50;58.15;101378.25;689459;28;22374;-69
2021/09/19 00:10:41;;;;;;;5.13;3.30;;;;;;;14.48;58.19;101369.44;692290;28;22381;-70
2021/09/19 00:11:03;;;;;;;3.63;3.33;;;;;;;14.50;57.88;101382.81;689009;28;22193;-69
2021/09/19 00:11:24;;;;;;;3.60;3.30;;;;;;;14.47;58.24;101370.47;688759;28;70257;-72
2021/09/19 00:11:46;;;;;;;4.22;3.33;;;;;;;14.48;58.11;101377.59;687599;28;23443;-70
2021/09/19 00:12:08;;;;;;;4.55;3.22;;;;;;;14.48;57.96;101374.00;689450;28;22552;-70
2021/09/19 00:12:29;;;;;;;3.88;3.10;;;;;;;14.50;58.33;101382.81;687675;28;46441;-70
2021/09/19 00:12:51;;;;;;;4.25;3.00;;;;;;;14.50;58.00;101377.38;688057;28;20110;-70
2021/09/19 00:13:12;;;;;;;3.45;3.25;;;;;;;14.49;58.20;101376.53;687974;28;45257;-70
2021/09/19 00:13:33;;;;;;;4.38;3.22;;;;;;;14.50;58.00;101380.97;688957;28;46300;-70
2021/09/19 00:13:55;;;;;;;3.72;3.15;;;;;;;14.51;58.40;101379.06;691035;28;915;-70
2021/09/19 00:14:17;;;;;;;3.35;3.05;;;;;;;14.51;57.88;101379.06;689256;28;21528;-70
2021/09/19 00:14:38;;;;;;;4.78;3.58;;;;;;;14.50;58.11;101378.25;686767;28;46347;-70
2021/09/19 00:14:59;;;;;;;3.47;3.17;;;;;;;14.51;58.17;101379.91;689722;28;22412;-69
2021/09/19 00:15:21;;;;;;;3.38;3.13;;;;;;;14.51;58.00;101381.78;689095;28;22402;-71
2021/09/19 00:15:43;;;;;;;3.30;3.00;;;;;;;14.50;58.41;101378.25;687887;28;46921;-69
2021/09/19 00:16:04;;;;;;;3.60;3.20;;;;;;;14.50;58.30;101383.69;689107;28;46267;-70
2021/09/19 00:16:25;;;;;;;3.40;3.13;;;;;;;14.51;58.30;101379.06;690684;28;22394;-69
2021/09/19 00:16:48;;;;;;;3.53;3.13;;;;;;;14.49;58.12;101378.44;689379;28;21578;-71
2021/09/19 00:17:11;;;;;;;4.05;3.30;;;;;;;14.50;58.26;101374.66;686340;28;69446;-71
2021/09/19 00:17:32;;;;;;;3.60;3.30;;;;;;;14.48;58.11;101372.16;689605;28;69686;-70
2021/09/19 00:17:53;;;;;;;3.60;3.30;;;;;;;14.51;58.20;101379.06;688111;28;46346;-69
2021/09/19 00:18:16;;;;;;;4.70;3.38;;;;;;;14.51;58.28;101381.78;689051;28;21551;-71
2021/09/19 00:18:38;;;;;;;4.30;3.22;;;;;;;14.51;58.37;101373.63;687278;28;67527;-70
2021/09/19 00:18:59;;;;;;;3.30;3.00;;;;;;;14.47;57.94;101372.34;687201;28;46284;-69
2021/09/19 00:19:20;;;;;;;5.25;3.30;;;;;;;14.50;57.96;101378.25;689148;28;21562;-71
2021/09/19 00:19:41;;;;;;;3.83;3.53;;;;;;;14.52;58.34;101378.88;690291;28;22215;-69
2021/09/19 00:20:04;;;;;;;4.03;3.67;;;;;;;14.52;57.89;101375.34;689411;28;23539;-71
2021/09/19 00:20:26;;;;;;;4.15;3.30;;;;;;;14.52;58.31;101380.78;688536;28;67493;-70
2021/09/19 00:20:47;;;;;;;6.82;3.33;;;;;;;14.51;58.27;101376.34;688611;28;45077;-70
2021/09/19 00:21:09;;;;;;;4.47;3.10;;;;;;;14.51;58.17;101379.91;691837;28;22471;-70
2021/09/19 00:21:32;;;;;;;3.60;3.25;;;;;;;14.51;58.15;101381.78;691596;28;25418;-69
2021/09/19 00:21:53;;;;;;;4.68;4.35;;;;;;;14.50;58.22;101375.53;688230;28;67558;-70
2021/09/19 00:22:15;;;;;;;4.28;3.97;;;;;;;14.50;58.31;101372.81;690698;28;23495;-70
2021/09/19 00:22:36;;;;;;;3.50;3.03;;;;;;;14.50;58.20;101371.94;685096;28;43760;-70
2021/09/19 00:22:57;;;;;;;3.60;3.30;;;;;;;14.51;58.36;101373.63;690744;28;23491;-70
2021/09/19 00:23:18;;;;;;;3.40;3.10;;;;;;;14.49;58.14;101370.28;688348;28;22427;-71
2021/09/19 00:23:40;;;;;;;3.53;3.10;;;;;;;14.49;58.26;101378.44;688442;28;22406;-70
2021/09/19 00:24:02;;;;;;;5.07;3.30;;;;;;;14.49;58.54;101378.44;687504;28;46322;-70
2021/09/19 00:24:23;;;;;;;4.22;3.15;;;;;;;14.51;58.66;101373.63;687334;28;46302;-70
2021/09/19 00:24:44;;;;;;;3.35;3.10;;;;;;;14.49;58.54;101375.72;688527;28;21309;-72
2021/09/19 00:25:09;;;;;;;3.20;3.00;;;;;;;14.48;58.06;101369.44;690477;28;22033;-69
2021/09/19 00:25:30;;;;;;;3.38;3.03;;;;;;;14.50;58.37;101377.38;688601;28;115142;-69
2021/09/19 00:25:51;;;;;;;3.72;3.20;;;;;;;14.49;58.28;101373.00;688528;28;22226;-70
2021/09/19 00:26:12;;;;;;;3.70;3.33;;;;;;;14.48;58.21;101374.88;687557;28;24178;-70
2021/09/19 00:26:34;;;;;;;3.42;3.13;;;;;;;14.49;58.22;101378.44;688325;28;23437;-70
2021/09/19 00:26:56;;;;;;;3.45;2.95;;;;;;;14.47;58.29;101367.75;687299;28;45068;-70
2021/09/19 00:27:17;;;;;;;4.35;3.28;;;;;;;14.46;58.22;101374.19;688349;28;23470;-72
2021/09/19 00:27:39;;;;;;;4.18;3.28;;;;;;;14.47;58.19;101370.47;685090;28;45271;-71
2021/09/19 00:28:00;;;;;;;3.67;3.30;;;;;;;14.49;58.43;101375.72;687719;28;22365;-70
2021/09/19 00:28:22;;;;;;;3.60;3.30;;;;;;;14.48;58.16;101371.28;685588;28;44375;-69
2021/09/19 00:28:43;;;;;;;3.22;2.92;;;;;;;14.48;58.18;101377.59;686319;28;23507;-71
2021/09/19 00:29:04;;;;;;;3.28;3.08;;;;;;;14.44;58.01;101359.97;687332;28;23499;-70
2021/09/19 00:29:29;;;;;;;3.53;3.22;;;;;;;14.48;58.01;101374.88;687333;28;36498;-70
2021/09/19 00:29:51;;;;;;;3.53;3.20;;;;;;;14.47;58.11;101369.63;688533;28;43991;-70
2021/09/19 00:30:12;;;;;;;3.25;3.05;;;;;;;14.48;58.01;101368.56;685856;28;23506;-70
2021/09/19 00:30:34;;;;;;;3.47;3.20;;;;;;;14.45;58.22;101361.66;687909;28;46328;-69
2021/09/19 00:30:56;;;;;;;3.50;3.20;;;;;;;14.48;58.08;101371.28;689719;28;22395;-71
2021/09/19 00:31:17;;;;;;;3.10;2.90;;;;;;;14.49;58.00;101373.00;687603;28;46255;-71
2021/09/19 00:31:38;;;;;;;3.17;2.97;;;;;;;14.50;58.22;101372.81;688693;28;22407;-70
2021/09/19 00:31:59;;;;;;;3.50;3.20;;;;;;;14.50;58.10;101372.81;689623;28;22470;-70
2021/09/19 00:32:21;;;;;;;4.40;3.40;;;;;;;14.49;57.91;101373.00;688621;28;44414;-70
2021/09/19 00:32:42;;;;;;;3.40;3.10;;;;;;;14.51;58.02;101373.63;688138;28;45359;-69
2021/09/19 00:33:03;;;;;;;3.35;3.15;;;;;;;14.49;58.09;101373.00;689487;28;22449;-71
2021/09/19 00:33:24;;;;;;;3.42;3.22;;;;;;;14.49;57.89;101367.56;689214;28;23439;-71
2021/09/19 00:33:46;;;;;;;3.20;2.95;;;;;;;14.49;57.78;101367.56;689041;28;22397;-70
2021/09/19 00:34:07;;;;;;;3.42;3.13;;;;;;;14.49;57.74;101367.56;686597;28;46314;-71
2021/09/19 00:34:28;;;;;;;3.50;3.20;;;;;;;14.47;57.95;101362.31;687812;28;22395;-70
2021/09/19 00:34:49;;;;;;;4.20;3.20;;;;;;;14.49;57.62;101371.09;687603;28;23507;-70
2021/09/19 00:35:12;;;;;;;3.20;2.95;;;;;;;14.51;58.00;101370.91;687973;28;23418;-70
2021/09/19 00:35:33;;;;;;;3.03;2.80;;;;;;;14.50;57.59;101372.81;688431;28;46335;-71
2021/09/19 00:35:54;;;;;;;3.08;2.83;;;;;;;14.49;57.58;101364.84;688472;28;22398;-70
2021/09/19 00:36:15;;;;;;;3.60;3.20;;;;;;;14.48;57.60;101368.56;688197;28;21553;-71
2021/09/19 00:36:38;;;;;;;3.45;3.13;;;;;;;14.48;57.65;101374.00;688964;28;22404;-70
2021/09/19 00:36:59;;;;;;;3.45;3.13;;;;;;;14.46;57.54;101365.22;685717;28;82262;-70
2021/09/19 00:37:20;;;;;;;3.75;3.40;;;;;;;14.47;57.30;101367.75;690066;28;13801;-69
2021/09/19 00:37:42;;;;;;;3.50;3.20;;;;;;;14.48;57.60;101368.56;688932;28;21534;-70
2021/09/19 00:38:03;;;;;;;3.30;3.00;;;;;;;14.48;57.60;101366.72;687763;28;23491;-69
2021/09/19 00:38:25;;;;;;;3.50;2.95;;;;;;;14.48;57.23;101369.44;689869;28;21545;-69
2021/09/19 00:38:46;;;;;;;3.42;2.95;;;;;;;14.48;57.10;101368.56;687356;28;46350;-69
2021/09/19 00:39:07;;;;;;;3.40;3.10;;;;;;;14.43;57.18;101363.69;688811;28;21302;-72
2021/09/19 00:39:29;;;;;;;3.28;3.08;;;;;;;14.45;57.01;101363.50;689509;28;28704;-69
2021/09/19 00:39:51;;;;;;;3.28;3.08;;;;;;;14.46;57.24;101371.47;688544;28;21558;-69
2021/09/19 00:40:12;;;;;;;3.70;3.30;;;;;;;14.46;57.17;101367.94;688015;28;46231;-69
2021/09/19 00:40:35;;;;;;;3.17;2.97;;;;;;;14.45;56.97;101358.94;690191;28;1234;-70
2021/09/19 00:40:58;;;;;;;3.28;2.97;;;;;;;14.46;57.21;101365.22;689804;28;21474;-69
2021/09/19 00:41:19;;;;;;;3.13;2.92;;;;;;;14.45;56.94;101366.22;686720;28;69256;-69
2021/09/19 00:41:40;;;;;;;3.17;2.97;;;;;;;14.44;56.98;101362.69;688477;28;21516;-69
2021/09/19 00:42:01;;;;;;;3.40;3.10;;;;;;;14.45;57.29;101366.22;689216;28;22440;-70
2021/09/19 00:42:23;;;;;;;3.05;2.85;;;;;;;14.41;57.20;101361.16;689029;28;21504;-70
2021/09/19 00:42:44;;;;;;;3.70;3.10;;;;;;;14.44;57.33;101364.56;689698;28;45057;-70
2021/09/19 00:43:05;;;;;;;3.47;3.17;;;;;;;14.40;57.46;101354.06;688871;28;22416;-71
2021/09/19 00:43:27;;;;;;;3.50;3.20;;;;;;;14.40;57.09;101356.78;689342;28;21536;-69
2021/09/19 00:43:52;;;;;;;3.97;3.22;;;;;;;14.40;57.08;101361.34;687487;28;44372;-69
2021/09/19 00:44:13;;;;;;;3.38;3.00;;;;;;;14.40;56.89;101364.06;685606;28;115174;-70
2021/09/19 00:44:34;;;;;;;3.30;3.10;;;;;;;14.39;57.05;101359.69;688307;28;22423;-70
2021/09/19 00:44:57;;;;;;;4.05;3.25;;;;;;;14.38;56.85;101363.44;689875;28;22239;-69
2021/09/19 00:45:21;;;;;;;3.30;3.00;;;;;;;14.35;57.08;101358.38;686139;28;69449;-69
2021/09/19 00:45:42;;;;;;;3.50;3.20;;;;;;;14.32;56.94;101343.28;686291;28;92109;-70
2021/09/19 00:46:03;;;;;;;3.25;3.00;;;;;;;14.33;57.03;101355.84;688278;28;22378;-69
2021/09/19 00:46:25;;;;;;;3.30;3.00;;;;;;;14.35;57.08;101359.19;689378;28;23464;-69
2021/09/19 00:46:46;;;;;;;3.63;3.00;;;;;;;14.34;57.11;101357.53;688582;28;46300;-70
2021/09/19 00:47:07;;;;;;;4.15;2.90;;;;;;;14.34;57.16;101354.81;689090;28;23452;-70
2021/09/19 00:47:28;;;;;;;3.63;3.00;;;;;;;14.34;57.17;101351.22;691321;28;21217;-71
2021/09/19 00:47:51;;;;;;;3.38;3.08;;;;;;;14.34;57.10;101353.94;688932;28;23763;-71
2021/09/19 00:48:13;;;;;;;3.45;3.15;;;;;;;14.33;57.27;101355.84;687114;28;69476;-69
2021/09/19 00:48:34;;;;;;;3.70;3.40;;;;;;;14.32;57.05;101359.56;687784;28;46397;-69
2021/09/19 00:48:55;;;;;;;3.58;3.28;;;;;;;14.31;57.03;101357.91;689600;28;23463;-71
2021/09/19 00:49:16;;;;;;;3.08;2.88;;;;;;;14.31;57.34;101360.63;689331;28;22391;-70
2021/09/19 00:49:38;;;;;;;3.40;3.10;;;;;;;14.31;57.13;101354.31;688343;28;23433;-71
2021/09/19 00:50:00;;;;;;;3.40;3.10;;;;;;;14.28;57.23;101361.00;688325;28;45271;-71
2021/09/19 00:50:23;;;;;;;3.42;3.20;;;;;;;14.32;57.02;101353.31;687719;28;46144;-72
2021/09/19 00:50:44;;;;;;;3.20;3.00;;;;;;;14.32;57.17;101362.28;688234;28;69312;-70
2021/09/19 00:51:06;;;;;;;3.45;2.97;;;;;;;14.30;57.15;101358.94;690040;28;22370;-70
2021/09/19 00:51:28;;;;;;;3.33;2.92;;;;;;;14.32;57.26;101353.31;688902;28;46342;-71
2021/09/19 00:51:52;;;;;;;3.63;3.22;;;;;;;14.31;57.25;101357.91;688926;28;48088;-69
2021/09/19 00:52:14;;;;;;;4.65;3.38;;;;;;;14.32;57.27;101351.41;688263;28;70390;-69
2021/09/19 00:52:37;;;;;;;3.22;3.03;;;;;;;14.33;57.29;101353.13;687901;28;69229;-69
2021/09/19 00:52:59;;;;;;;3.15;2.85;;;;;;;14.33;57.12;101357.72;685814;28;67591;-69
2021/09/19 00:53:21;;;;;;;3.30;2.97;;;;;;;14.32;57.48;101353.31;688945;28;21601;-70
2021/09/19 00:53:42;;;;;;;3.50;3.20;;;;;;;14.31;57.36;101354.31;688978;28;44284;-71
2021/09/19 00:54:04;;;;;;;3.60;3.30;;;;;;;14.33;57.31;101358.56;687783;28;46341;-70
2021/09/19 00:54:26;;;;;;;3.65;3.28;;;;;;;14.33;57.60;101360.44;689010;28;46337;-71
2021/09/19 00:54:48;;;;;;;3.20;3.00;;;;;;;14.33;57.57;101357.72;690015;28;21548;-69
2021/09/19 00:55:10;;;;;;;3.25;3.03;;;;;;;14.33;57.52;101360.44;687739;28;46513;-70
2021/09/19 00:55:32;;;;;;;3.90;3.60;;;;;;;14.32;57.28;101356.03;688652;28;46337;-69
2021/09/19 00:55:56;;;;;;;3.63;3.38;;;;;;;14.31;57.70;101351.59;685754;28;69424;-69
2021/09/19 00:56:23;;;;;;;3.40;3.20;;;;;;;14.32;57.54;101356.03;685133;28;92324;-70
2021/09/19 00:56:46;;;;;;;3.80;2.95;;;;;;;14.32;57.34;101362.28;684660;28;137768;-71
2021/09/19 00:57:08;;;;;;;3.92;3.35;;;;;;;14.31;57.29;101357.03;685814;28;67509;-69
2021/09/19 00:57:29;;;;;;;3.53;3.22;;;;;;;14.32;57.42;101359.56;688412;28;46386;-70
2021/09/19 00:57:52;;;;;;;3.58;3.15;;;;;;;14.31;57.31;101363.34;689629;28;23411;-71
2021/09/19 00:58:14;;;;;;;3.65;3.05;;;;;;;14.29;57.24;101359.09;687562;28;69477;-70
2021/09/19 00:58:40;;;;;;;4.25;3.20;;;;;;;14.30;57.55;101358.94;688965;28;43328;-70
2021/09/19 00:59:01;;;;;;;3.05;2.83;;;;;;;14.31;57.36;101357.03;684137;28;138022;-69
2021/09/19 00:59:23;;;;;;;3.43;3.13;;;;;;;14.31;57.35;101357.03;690006;28;44358;-69
2021/09/19 00:59:49;;;;;;;3.50;3.20;;;;;;;14.29;57.54;101361.81;688820;28;46706;-70
2021/09/19 01:00:12;;;;;;;3.47;3.17;;;;;;;14.29;57.30;101364.53;685360;28;136839;-69
2021/09/19 01:00:34;;;;;;;3.50;3.20;;;;;;;14.28;57.49;101358.28;687735;28;69407;-70
2021/09/19 01:00:56;;;;;;;3.60;3.30;;;;;;;14.29;57.38;101361.81;687434;28;46523;-70
2021/09/19 01:01:18;;;;;;;3.92;3.38;;;;;;;14.29;57.57;101357.22;686247;28;45227;-70
2021/09/19 01:01:39;;;;;;;3.33;3.03;;;;;;;14.26;57.57;101352.16;687755;28;45113;-70
2021/09/19 01:02:00;;;;;;;3.35;3.15;;;;;;;14.26;57.61;101356.75;687999;28;23502;-71
2021/09/19 01:02:22;;;;;;;3.30;3.10;;;;;;;14.27;57.70;101359.28;690715;28;22374;-71
2021/09/19 01:02:44;;;;;;;3.50;3.00;;;;;;;14.25;57.57;101358.66;690933;28;46339;-70
2021/09/19 01:03:05;;;;;;;4.63;3.25;;;;;;;14.25;57.68;101358.66;692025;28;1807;-70
2021/09/19 01:03:27;;;;;;;3.40;3.20;;;;;;;14.26;57.56;101351.34;691190;28;22413;-71
2021/09/19 01:03:49;;;;;;;3.30;3.10;;;;;;;14.28;57.66;101357.41;690707;28;46463;-70
2021/09/19 01:04:10;;;;;;;3.60;3.30;;;;;;;14.27;57.80;101359.28;689459;28;47233;-71
2021/09/19 01:04:32;;;;;;;3.42;3.20;;;;;;;14.28;57.71;101361.00;689498;28;22385;-70
2021/09/19 01:04:53;;;;;;;3.50;3.20;;;;;;;14.27;57.80;101355.75;687724;28;46289;-70
2021/09/19 01:05:17;;;;;;;3.65;3.28;;;;;;;14.29;57.92;101359.94;689272;28;22462;-73
2021/09/19 01:05:40;;;;;;;4.28;3.17;;;;;;;14.29;57.78;101353.69;685128;28;115167;-69
2021/09/19 01:06:01;;;;;;;4.75;3.00;;;;;;;14.29;57.89;101353.69;688261;28;44386;-70
2021/09/19 01:06:23;;;;;;;5.25;3.10;;;;;;;14.28;57.56;101361.00;687929;28;23542;-71
2021/09/19 01:06:45;;;;;;;4.47;3.30;;;;;;;14.28;57.57;101355.56;688791;28;22307;-69
2021/09/19 01:07:08;;;;;;;3.53;3.22;;;;;;;14.28;57.48;101362.84;686875;28;67482;-72
2021/09/19 01:07:29;;;;;;;3.45;3.20;;;;;;;14.27;57.83;101364.72;687927;28;69500;-69
2021/09/19 01:07:51;;;;;;;3.47;3.17;;;;;;;14.28;57.81;101363.72;688568;28;23495;-71
2021/09/19 01:08:15;;;;;;;3.88;3.03;;;;;;;14.27;57.57;101355.75;687322;28;46271;-72
2021/09/19 01:08:42;;;;;;;3.30;3.00;;;;;;;14.27;57.61;101355.75;687131;28;92206;-71
2021/09/19 01:09:03;;;;;;;3.38;3.13;;;;;;;14.24;57.73;101352.34;684492;28;136445;-70
2021/09/19 01:09:24;;;;;;;4.25;2.88;;;;;;;14.26;57.59;101359.47;689360;28;21432;-72
2021/09/19 01:09:47;;;;;;;3.58;2.90;;;;;;;14.25;57.76;101358.66;688544;28;22393;-69
2021/09/19 01:10:10;;;;;;;3.30;3.10;;;;;;;14.22;57.67;101353.59;687453;28;69431;-70
2021/09/19 01:10:31;;;;;;;3.58;3.28;;;;;;;14.26;57.67;101354.88;689030;28;69415;-69
2021/09/19 01:10:53;;;;;;;3.60;3.30;;;;;;;14.24;57.55;101357.78;690354;28;46397;-71
2021/09/19 01:11:17;;;;;;;3.30;3.00;;;;;;;14.24;57.82;101356.94;689137;28;35061;-72
2021/09/19 01:11:38;;;;;;;3.72;3.00;;;;;;;14.26;57.78;101351.34;689144;28;69250;-70
2021/09/19 01:12:00;;;;;;;3.58;3.28;;;;;;;14.26;57.96;101360.31;689868;28;44349;-70
2021/09/19 01:12:23;;;;;;;3.42;3.10;;;;;;;14.25;57.86;101355.94;690359;28;21516;-70
2021/09/19 01:12:44;;;;;;;3.53;3.17;;;;;;;14.25;58.02;101358.66;687072;28;90142;-69
2021/09/19 01:13:06;;;;;;;3.50;3.20;;;;;;;14.27;58.01;101353.03;689011;28;21549;-69
2021/09/19 01:13:28;;;;;;;3.38;3.15;;;;;;;14.27;57.87;101353.84;688615;28;22404;-69
2021/09/19 01:13:50;;;;;;;3.70;3.40;;;;;;;14.27;58.16;101355.75;688619;28;69434;-69
2021/09/19 01:14:14;;;;;;;5.57;3.38;;;;;;;14.27;57.97;101348.44;691298;28;23479;-70
2021/09/19 01:14:37;;;;;;;3.47;3.20;;;;;;;14.27;57.97;101356.56;688670;28;113557;-70
2021/09/19 01:14:59;;;;;;;3.72;3.22;;;;;;;14.28;58.04;101354.69;689396;28;69707;-69
2021/09/19 01:15:23;;;;;;;3.42;3.15;;;;;;;14.27;58.14;101351.16;691249;28;22433;-70
2021/09/19 01:15:44;;;;;;;3.53;3.13;;;;;;;14.28;57.82;101349.25;686183;28;114161;-70
2021/09/19 01:16:06;;;;;;;4.32;3.40;;;;;;;14.30;57.79;101355.38;687258;28;46422;-70
2021/09/19 01:16:27;;;;;;;3.53;3.22;;;;;;;14.27;58.18;101345.72;688964;28;22315;-69
2021/09/19 01:16:49;;;;;;;3.50;3.20;;;;;;;14.31;58.24;101355.19;687646;28;44140;-69
2021/09/19 01:17:12;;;;;;;3.70;3.40;;;;;;;14.31;58.06;101357.91;687571;28;46301;-69
2021/09/19 01:17:33;;;;;;;4.30;3.15;;;;;;;14.31;57.84;101357.91;688065;28;44339;-74
2021/09/19 01:17:55;;;;;;;3.30;3.00;;;;;;;14.30;57.73;101349.94;687142;28;45366;-70
2021/09/19 01:18:18;;;;;;;3.33;3.03;;;;;;;14.32;57.82;101342.44;688319;28;22403;-70
2021/09/19 01:18:39;;;;;;;3.53;3.22;;;;;;;14.32;57.96;101351.41;685782;28;69238;-71
2021/09/19 01:19:02;;;;;;;3.60;3.30;;;;;;;14.32;57.83;101348.69;686597;28;45227;-71
2021/09/19 01:19:25;;;;;;;3.45;3.25;;;;;;;14.32;57.53;101350.59;687373;28;44328;-69
2021/09/19 01:19:48;;;;;;;3.25;3.05;;;;;;;14.31;57.90;101352.47;687860;28;69442;-70
2021/09/19 01:20:13;;;;;;;4.90;3.33;;;;;;;14.32;57.84;101354.13;686420;28;69437;-71
2021/09/19 01:20:35;;;;;;;3.75;3.45;;;;;;;14.32;57.53;101347.88;685696;28;115987;-70
2021/09/19 01:20:56;;;;;;;3.38;2.88;;;;;;;14.30;57.53;101347.22;687489;28;45237;-69
2021/09/19 01:21:18;;;;;;;3.80;3.10;;;;;;;14.32;57.53;101350.59;689075;28;22149;-71
2021/09/19 01:21:39;;;;;;;3.22;3.03;;;;;;;14.32;57.49;101350.59;688135;28;46872;-69
2021/09/19 01:22:01;;;;;;;3.50;3.20;;;;;;;14.30;57.34;101348.06;689901;28;1518;-71
2021/09/19 01:22:31;;;;;;;3.30;3.10;;;;;;;14.28;57.75;101352.84;688510;28;45062;-69
2021/09/19 01:23:03;;;;;;;4.25;3.25;;;;;;;14.30;57.62;101349.94;684643;28;137897;-70
2021/09/19 01:23:30;;;;;;;3.55;3.00;;;;;;;14.29;57.46;101349.06;683792;28;137792;-71
2021/09/19 01:23:54;;;;;;;3.78;3.35;;;;;;;14.29;57.69;101349.06;684256;28;137709;-70
2021/09/19 01:24:16;;;;;;;3.53;3.23;;;;;;;14.29;57.36;101350.97;685745;28;115051;-70
2021/09/19 01:24:38;;;;;;;3.45;3.15;;;;;;;14.29;57.42;101348.25;686478;28;69537;-70
2021/09/19 01:24:59;;;;;;;3.20;2.90;;;;;;;14.29;57.68;101353.69;688756;28;23498;-70
2021/09/19 01:25:20;;;;;;;3.35;3.05;;;;;;;14.27;57.80;101347.59;688950;28;21537;-70
2021/09/19 01:25:44;;;;;;;3.63;3.22;;;;;;;14.29;57.85;101354.50;688499;28;22298;-69
2021/09/19 01:26:06;;;;;;;3.40;3.20;;;;;;;14.27;57.87;101350.31;686766;28;92658;-70
2021/09/19 01:26:27;;;;;;;3.30;3.00;;;;;;;14.30;57.94;101350.78;688198;28;44268;-71
2021/09/19 01:26:49;;;;;;;3.10;2.90;;;;;;;14.29;57.64;101351.78;689518;28;22028;-70
2021/09/19 01:27:10;;;;;;;3.40;3.20;;;;;;;14.28;57.87;101349.25;689024;28;46333;-70
2021/09/19 01:27:32;;;;;;;3.40;3.10;;;;;;;14.30;58.02;101355.38;690393;28;21847;-70
2021/09/19 01:27:53;;;;;;;3.28;3.00;;;;;;;14.29;57.76;101359.09;688439;28;46328;-70
2021/09/19 01:28:15;;;;;;;3.55;3.25;;;;;;;14.29;57.76;101349.06;689518;28;22406;-69
2021/09/19 01:28:36;;;;;;;4.05;3.35;;;;;;;14.29;57.88;101353.69;691656;28;46373;-69
2021/09/19 01:28:57;;;;;;;3.72;3.17;;;;;;;14.24;57.61;101349.63;690236;28;23462;-70
2021/09/19 01:29:18;;;;;;;3.40;3.10;;;;;;;14.28;57.64;101349.25;691841;28;21536;-69
2021/09/19 01:29:40;;;;;;;3.20;3.00;;;;;;;14.29;57.92;101349.06;691498;28;22477;-69
2021/09/19 01:30:02;;;;;;;3.70;3.40;;;;;;;14.30;57.73;101352.66;691384;28;22396;-70
2021/09/19 01:30:23;;;;;;;3.50;3.20;;;;;;;14.28;58.02;101347.41;690434;28;69436;-71
2021/09/19 01:30:44;;;;;;;3.40;3.10;;;;;;;14.27;57.66;101348.44;690200;28;22410;-72
2021/09/19 01:31:05;;;;;;;3.95;3.22;;;;;;;14.27;58.00;101345.72;691326;28;22415;-69
2021/09/19 01:31:28;;;;;;;5.05;3.35;;;;;;;14.24;58.00;101351.53;689060;28;21561;-69
2021/09/19 01:31:49;;;;;;;3.50;3.20;;;;;;;14.29;57.98;101350.97;688211;28;69502;-70
2021/09/19 01:32:10;;;;;;;4.25;3.35;;;;;;;14.28;57.94;101350.13;687368;28;22402;-70
2021/09/19 01:32:31;;;;;;;4.55;3.50;;;;;;;14.29;57.75;101353.69;689889;28;22400;-70
2021/09/19 01:32:52;;;;;;;5.30;3.45;;;;;;;14.28;57.91;101352.84;689006;28;22436;-71
2021/09/19 01:33:14;;;;;;;3.58;3.20;;;;;;;14.28;57.74;101344.69;689796;28;23756;-71
2021/09/19 01:33:35;;;;;;;3.80;3.50;;;;;;;14.27;58.00;101339.44;688890;28;45274;-70
2021/09/19 01:33:56;;;;;;;3.72;3.33;;;;;;;14.24;57.64;101340.66;689230;28;21654;-70
2021/09/19 01:34:18;;;;;;;3.45;3.15;;;;;;;14.26;58.03;101346.72;689573;28;22367;-70
2021/09/19 01:34:39;;;;;;;3.45;3.15;;;;;;;14.28;58.35;101352.84;687296;28;22469;-70
2021/09/19 01:35:01;;;;;;;3.60;3.28;;;;;;;14.27;57.85;101356.56;687264;28;22308;-70
2021/09/19 01:35:22;;;;;;;3.78;3.20;;;;;;;14.27;57.96;101343.00;690099;28;46138;-70
2021/09/19 01:35:57;;;;;;;4.75;3.28;;;;;;;14.26;57.87;101348.63;692604;28;22388;-72
2021/09/19 01:36:20;;;;;;;3.47;3.10;;;;;;;14.28;57.83;101349.25;688482;28;73482;-70
2021/09/19 01:36:41;;;;;;;3.45;3.00;;;;;;;14.26;58.31;101346.72;689895;28;46671;-71
2021/09/19 01:37:04;;;;;;;4.43;3.30;;;;;;;14.26;57.89;101343.19;691372;28;21562;-69
2021/09/19 01:37:26;;;;;;;5.00;3.50;;;;;;;14.26;57.97;101348.63;688627;28;40784;-70
2021/09/19 01:37:48;;;;;;;3.47;3.17;;;;;;;14.25;57.95;101347.78;688657;28;21589;-69
2021/09/19 01:38:09;;;;;;;3.63;3.33;;;;;;;14.22;57.99;101343.56;687630;28;46371;-70
2021/09/19 01:38:31;;;;;;;3.63;3.33;;;;;;;14.22;58.14;101338.13;688804;28;23474;-70
2021/09/19 01:38:53;;;;;;;3.65;3.35;;;;;;;14.23;57.96;101339.81;686611;28;46210;-70
2021/09/19 01:39:14;;;;;;;4.40;3.30;;;;;;;14.21;58.14;101335.59;686427;28;45266;-70
2021/09/19 01:39:35;;;;;;;4.70;3.13;;;;;;;14.22;57.92;101340.84;687231;28;23510;-71
2021/09/19 01:39:56;;;;;;;4.35;3.30;;;;;;;14.22;58.15;101337.28;687910;28;22374;-70
2021/09/19 01:40:18;;;;;;;3.72;3.42;;;;;;;14.22;57.98;101342.72;688153;28;23294;-72
2021/09/19 01:40:39;;;;;;;3.92;3.33;;;;;;;14.21;57.96;101333.69;686442;28;46172;-72
2021/09/19 01:41:00;;;;;;;3.65;3.28;;;;;;;14.21;57.96;101341.03;687378;28;21512;-69
2021/09/19 01:41:23;;;;;;;3.75;3.40;;;;;;;14.20;58.29;101334.75;687883;28;22534;-71
2021/09/19 01:41:45;;;;;;;3.78;3.28;;;;;;;14.19;58.25;101338.50;686396;28;67504;-69
2021/09/19 01:42:07;;;;;;;6.20;3.30;;;;;;;14.19;58.33;101333.06;686464;28;69416;-70
2021/09/19 01:42:28;;;;;;;3.60;3.30;;;;;;;14.20;57.99;101342.03;690116;28;22353;-70
2021/09/19 01:42:49;;;;;;;3.47;3.28;;;;;;;14.19;58.00;101343.91;689533;28;22417;-70
2021/09/19 01:43:11;;;;;;;3.40;3.10;;;;;;;14.17;58.21;101336.97;689978;28;21520;-71
2021/09/19 01:43:32;;;;;;;3.50;3.20;;;;;;;14.18;58.24;101342.22;688520;28;47010;-69